John James Audubon — WDE8037 — position and weather

sailwx.info

Track history (hours):
 
Tides and Currents Weather Stations Pressure Air Temp Water Temp Dewpoint Dewpoint Depression Visibility Wind Speed Wind Dir Waves Ship Positions

John James Audubon

Owner: Statue Cruises, Jersey City, NJ. More information available from US FCC via Universal Licensing System and Coast Guard Vessel Documentation Center.

Last reported at 2017-Dec-15 23:07 UTC. Time now 2017-Dec-16 09:23 UTC.
Position N 40°44' W 074°01'.

Length 37 m; draft 3 m.

Type: Ship. MMSI: 367400770.

Date/timePositionNaut miles runAvg speedWind from/ knotsBaromVisibWave heightAir tempDewpointWater temp
2017-Dec-15 23:07N 40°44' W 074°01'0 0.0
2017-Dec-15 23:00N 40°44' W 074°01'2 3.4
2017-Dec-15 22:30N 40°42' W 074°01'1 1.6
2017-Dec-15 22:00N 40°42' W 074°00'1 2.7
2017-Dec-15 21:30N 40°42' W 074°02'1 2.6
2017-Dec-15 21:00N 40°42' W 074°00'0 0.0
2017-Dec-15 20:28N 40°42' W 074°00'2 4.2
2017-Dec-15 20:00N 40°41' W 074°02'2 3.8
2017-Dec-15 19:30N 40°42' W 074°00'0 0.0
2017-Dec-15 19:00N 40°42' W 074°00'2 3.6
2017-Dec-15 18:30N 40°41' W 074°02'2 3.4
2017-Dec-15 17:59N 40°42' W 074°00'0 0.0
2017-Dec-15 17:30N 40°42' W 074°00'2 3.3
2017-Dec-15 17:00N 40°41' W 074°02'2 3.3
2017-Dec-15 16:30N 40°42' W 074°00'0 0.0
2017-Dec-15 16:00N 40°42' W 074°00'2 3.5
2017-Dec-15 15:30N 40°41' W 074°02'2 3.5
2017-Dec-15 15:00N 40°42' W 074°00'0 0.0
2017-Dec-15 14:30N 40°42' W 074°00'0 0.0
2017-Dec-15 14:00N 40°42' W 074°00'2 3.2
2017-Dec-15 13:30N 40°44' W 074°01'0 0.0
2017-Dec-15 13:00N 40°44' W 074°01'0 0.0
2017-Dec-15 12:30N 40°44' W 074°01'0 0.0
2017-Dec-15 12:00N 40°44' W 074°01'3 0.2
2017-Dec-14 18:30N 40°41' W 074°02'2 3.5
2017-Dec-14 18:00N 40°42' W 074°00'0 0.0
2017-Dec-14 17:30N 40°42' W 074°00'1 2.9
2017-Dec-14 17:00N 40°41' W 074°02'1 2.9
2017-Dec-14 16:30N 40°42' W 074°00'0 0.0
2017-Dec-14 16:00N 40°42' W 074°00'0 0.0
2017-Dec-14 15:00N 40°42' W 074°00'0 0.0
2017-Dec-14 14:30N 40°42' W 074°00'2 3.2
2017-Dec-14 14:00N 40°44' W 074°01'0 0.0
2017-Dec-14 13:30N 40°44' W 074°01'0 0.0
2017-Dec-14 13:00N 40°44' W 074°01'0 0.0
2017-Dec-14 12:30N 40°44' W 074°01'0 0.0
2017-Dec-14 12:00N 40°44' W 074°01'0 0.0
2017-Dec-13 23:32N 40°44' W 074°01'0 0.0
2017-Dec-13 23:30N 40°44' W 074°01'0 0.0
2017-Dec-13 23:00N 40°44' W 074°01'1 1.1
2017-Dec-13 22:30N 40°43' W 074°01'1 2.5
2017-Dec-13 22:00N 40°42' W 074°00'2 3.3
2017-Dec-13 21:30N 40°41' W 074°02'2 3.2
2017-Dec-13 21:00N 40°42' W 074°00'0 0.0
2017-Dec-13 20:30N 40°42' W 074°00'2 3.4
2017-Dec-13 20:00N 40°41' W 074°02'2 3.3
2017-Dec-13 19:29N 40°42' W 074°00'0 0.0
2017-Dec-13 18:59N 40°42' W 074°00'1 3.0
2017-Dec-13 18:30N 40°41' W 074°02'1 2.7
2017-Dec-13 17:59N 40°42' W 074°00'0 0.0
2017-Dec-13 17:30N 40°42' W 074°00'2 3.3
2017-Dec-13 17:00N 40°41' W 074°02'2 3.3
2017-Dec-13 16:30N 40°42' W 074°00'0 0.0
2017-Dec-13 16:00N 40°42' W 074°00'1 2.8
2017-Dec-13 15:30N 40°41' W 074°02'1 2.7
2017-Dec-13 14:59N 40°42' W 074°00'0 0.0
2017-Dec-13 14:30N 40°42' W 074°00'1 1.8
2017-Dec-13 14:00N 40°43' W 074°01'1 2.4
2017-Dec-13 13:30N 40°44' W 074°01'0 0.0
2017-Dec-13 13:00N 40°44' W 074°01'0 0.0
2017-Dec-13 12:29N 40°44' W 074°01'0 0.0
2017-Dec-13 12:00N 40°44' W 074°01'0 0.0
2017-Dec-12 23:31N 40°44' W 074°01'0 0.0
2017-Dec-12 23:30N 40°44' W 074°01'0 0.0
2017-Dec-12 23:01N 40°44' W 074°01'0 0.0
2017-Dec-12 22:31N 40°44' W 074°01'0 0.0
2017-Dec-12 22:00N 40°44' W 074°01'0 1.0
2017-Dec-12 21:30N 40°43' W 074°01'1 2.6
2017-Dec-12 21:00N 40°42' W 074°00'0 0.0
2017-Dec-12 20:29N 40°42' W 074°00'2 4.2
2017-Dec-12 20:01N 40°41' W 074°02'2 3.8
2017-Dec-12 19:29N 40°42' W 074°00'0 0.0
2017-Dec-12 19:00N 40°42' W 074°00'2 4.0
2017-Dec-12 18:31N 40°41' W 074°02'2 3.9
2017-Dec-12 18:00N 40°42' W 074°00'0 0.0
2017-Dec-12 17:30N 40°42' W 074°00'2 3.7
2017-Dec-12 17:00N 40°41' W 074°02'2 3.7
2017-Dec-12 16:30N 40°42' W 074°00'0 0.0
2017-Dec-12 16:01N 40°42' W 074°00'2 3.9
2017-Dec-12 15:31N 40°41' W 074°02'2 3.9
2017-Dec-12 15:00N 40°42' W 074°00'0 0.0
2017-Dec-12 14:30N 40°42' W 074°00'0 0.0
2017-Dec-12 14:00N 40°42' W 074°00'2 3.2
2017-Dec-12 13:30N 40°44' W 074°01'0 0.0
2017-Dec-11 22:54N 40°44' W 074°01'0 0.0
2017-Dec-11 22:30N 40°44' W 074°01'2 3.2
2017-Dec-11 22:00N 40°42' W 074°00'2 3.4
2017-Dec-11 21:30N 40°41' W 074°02'2 3.2
2017-Dec-11 20:59N 40°42' W 074°00'0 0.0
2017-Dec-11 20:30N 40°42' W 074°00'2 4.2
2017-Dec-11 20:00N 40°41' W 074°03'2 4.0
2017-Dec-11 19:30N 40°42' W 074°00'0 0.0
2017-Dec-11 19:00N 40°42' W 074°00'1 2.4
2017-Dec-11 18:30N 40°42' W 074°02'1 2.4
2017-Dec-11 18:00N 40°42' W 074°00'0 0.0
2017-Dec-11 17:30N 40°42' W 074°00'2 4.1
2017-Dec-11 17:00N 40°41' W 074°02'2 3.9
2017-Dec-11 16:30N 40°42' W 074°00'0 0.0
2017-Dec-11 16:00N 40°42' W 074°00'2 4.0
2017-Dec-11 15:30N 40°41' W 074°02'2 3.8
2017-Dec-11 15:00N 40°42' W 074°00'1 2.4
2017-Dec-11 14:30N 40°42' W 074°02'0 0.9
2017-Dec-11 14:00N 40°43' W 074°02'2 0.1
2017-Dec-10 22:42N 40°44' W 074°01'0 1.0
2017-Dec-10 22:30N 40°44' W 074°01'2 3.2
2017-Dec-10 22:01N 40°42' W 074°00'2 4.1
2017-Dec-10 21:31N 40°41' W 074°03'2 4.1
2017-Dec-10 21:01N 40°42' W 074°00'0 0.0
2017-Dec-10 20:30N 40°42' W 074°00'2 3.7
2017-Dec-10 20:01N 40°41' W 074°02'2 3.4
2017-Dec-10 19:29N 40°42' W 074°00'0 0.0
2017-Dec-10 19:00N 40°42' W 074°00'2 3.9
2017-Dec-10 18:30N 40°41' W 074°02'2 3.8
2017-Dec-10 18:00N 40°42' W 074°00'0 0.0
2017-Dec-10 17:30N 40°42' W 074°00'2 4.0
2017-Dec-10 17:00N 40°41' W 074°02'2 3.9
2017-Dec-10 16:30N 40°42' W 074°00'0 0.0
2017-Dec-10 16:00N 40°42' W 074°00'2 3.6
2017-Dec-10 15:31N 40°41' W 074°02'2 3.5
2017-Dec-10 15:00N 40°42' W 074°00'0 0.0
2017-Dec-10 14:30N 40°42' W 074°00'1 3.0
2017-Dec-10 14:01N 40°44' W 074°01'0 0.6
2017-Dec-10 13:30N 40°44' W 074°01'0 0.0
2017-Dec-09 22:14N 40°44' W 074°01'0 0.0
2017-Dec-09 22:00N 40°44' W 074°01'1 1.0
2017-Dec-09 21:30N 40°43' W 074°01'1 2.6
2017-Dec-09 21:00N 40°42' W 074°00'0 0.0
2017-Dec-09 20:30N 40°42' W 074°00'2 3.3
2017-Dec-09 20:00N 40°41' W 074°02'2 3.3
2017-Dec-09 19:30N 40°42' W 074°00'0 0.0
2017-Dec-09 19:00N 40°42' W 074°00'0 0.0
2017-Dec-09 18:30N 40°42' W 074°00'0 0.0
2017-Dec-09 18:00N 40°42' W 074°00'0 0.0
2017-Dec-09 17:30N 40°42' W 074°00'0 0.0
2017-Dec-09 17:00N 40°42' W 074°00'0 0.0
2017-Dec-09 16:30N 40°42' W 074°00'0 0.0
2017-Dec-09 16:00N 40°42' W 074°00'2 3.3
2017-Dec-09 15:30N 40°41' W 074°02'2 3.2
2017-Dec-09 15:00N 40°42' W 074°00'0 0.0
2017-Dec-09 14:30N 40°42' W 074°00'1 1.3
2017-Dec-09 14:00N 40°42' W 074°01'2 0.1
2017-Dec-08 23:02N 40°44' W 074°01'0 0.0
2017-Dec-08 23:00N 40°44' W 074°01'0 0.5
2017-Dec-08 22:30N 40°44' W 074°01'2 3.1
2017-Dec-08 22:00N 40°42' W 074°00'1 2.4
2017-Dec-08 21:31N 40°42' W 074°02'1 2.3
2017-Dec-08 21:00N 40°42' W 074°00'0 0.0
2017-Dec-08 20:30N 40°42' W 074°00'1 3.0
2017-Dec-08 20:01N 40°42' W 074°02'1 2.8
2017-Dec-08 19:29N 40°42' W 074°00'0 0.0
2017-Dec-08 19:00N 40°42' W 074°00'1 2.9
2017-Dec-08 18:30N 40°42' W 074°02'1 2.9
2017-Dec-08 18:01N 40°42' W 074°00'0 0.0
2017-Dec-08 17:31N 40°42' W 074°00'2 4.1
2017-Dec-08 17:00N 40°41' W 074°03'2 4.1
2017-Dec-08 16:30N 40°42' W 074°00'0 0.0
2017-Dec-08 16:00N 40°42' W 074°00'2 3.1
2017-Dec-08 15:31N 40°42' W 074°02'2 3.1
2017-Dec-08 15:00N 40°42' W 074°00'0 0.0
2017-Dec-08 14:28N 40°42' W 074°00'1 2.8
2017-Dec-08 14:01N 40°43' W 074°01'1 0.0
2017-Dec-07 23:03N 40°44' W 074°01'0 0.0
2017-Dec-07 23:00N 40°44' W 074°01'2 3.7
2017-Dec-07 22:30N 40°42' W 074°01'1 1.4
2017-Dec-07 22:00N 40°42' W 074°00'2 3.3
2017-Dec-07 21:30N 40°41' W 074°02'2 3.2
2017-Dec-07 21:00N 40°42' W 074°00'0 0.0
2017-Dec-07 20:30N 40°42' W 074°00'2 3.1
2017-Dec-07 20:00N 40°41' W 074°02'2 3.1
2017-Dec-07 19:30N 40°42' W 074°00'0 0.0
2017-Dec-07 19:00N 40°42' W 074°00'2 3.6
2017-Dec-07 18:30N 40°41' W 074°02'2 3.4
2017-Dec-07 18:00N 40°42' W 074°00'0 0.0
2017-Dec-07 17:30N 40°42' W 074°00'2 3.8
2017-Dec-07 17:00N 40°41' W 074°02'2 3.8
2017-Dec-07 16:30N 40°42' W 074°00'0 0.0
2017-Dec-07 15:58N 40°42' W 074°00'2 4.5
2017-Dec-07 15:30N 40°41' W 074°03'2 4.2
2017-Dec-07 15:00N 40°42' W 074°00'0 0.0
2017-Dec-07 14:30N 40°42' W 074°00'1 1.9
2017-Dec-07 14:00N 40°43' W 074°01'1 2.1
2017-Dec-07 13:30N 40°44' W 074°01'0 0.0
2017-Dec-07 13:00N 40°44' W 074°01'0 0.0
2017-Dec-07 12:30N 40°44' W 074°01'0 0.0
2017-Dec-07 12:00N 40°44' W 074°01'0 0.0
2017-Dec-06 22:26N 40°44' W 074°01'2 3.6
2017-Dec-06 22:00N 40°42' W 074°00'2 3.6
2017-Dec-06 21:31N 40°41' W 074°02'2 3.4
2017-Dec-06 21:00N 40°42' W 074°00'  
Track history (hours):
 
Tides and Currents Weather Stations Pressure Air Temp Water Temp Dewpoint Dewpoint Depression Visibility Wind Speed Wind Dir Waves Ship Positions

John James Audubon

Owner: Statue Cruises, Jersey City, NJ. More information available from US FCC via Universal Licensing System and Coast Guard Vessel Documentation Center.

Last reported at 2017-Dec-15 23:07 UTC. Time now 2017-Dec-16 09:23 UTC.
Position N 40°44' W 074°01'.

Length 37 m; draft 3 m.

Type: Ship. MMSI: 367400770.

Date/timePositionNaut miles runAvg speedWind from/ knotsBaromVisibWave heightAir tempDewpointWater temp
2017-Dec-15 23:07N 40°44' W 074°01'0 0.0
2017-Dec-15 23:00N 40°44' W 074°01'2 3.4
2017-Dec-15 22:30N 40°42' W 074°01'1 1.6
2017-Dec-15 22:00N 40°42' W 074°00'1 2.7
2017-Dec-15 21:30N 40°42' W 074°02'1 2.6
2017-Dec-15 21:00N 40°42' W 074°00'0 0.0
2017-Dec-15 20:28N 40°42' W 074°00'2 4.2
2017-Dec-15 20:00N 40°41' W 074°02'2 3.8
2017-Dec-15 19:30N 40°42' W 074°00'0 0.0
2017-Dec-15 19:00N 40°42' W 074°00'2 3.6
2017-Dec-15 18:30N 40°41' W 074°02'2 3.4
2017-Dec-15 17:59N 40°42' W 074°00'0 0.0
2017-Dec-15 17:30N 40°42' W 074°00'2 3.3
2017-Dec-15 17:00N 40°41' W 074°02'2 3.3
2017-Dec-15 16:30N 40°42' W 074°00'0 0.0
2017-Dec-15 16:00N 40°42' W 074°00'2 3.5
2017-Dec-15 15:30N 40°41' W 074°02'2 3.5
2017-Dec-15 15:00N 40°42' W 074°00'0 0.0
2017-Dec-15 14:30N 40°42' W 074°00'0 0.0
2017-Dec-15 14:00N 40°42' W 074°00'2 3.2
2017-Dec-15 13:30N 40°44' W 074°01'0 0.0
2017-Dec-15 13:00N 40°44' W 074°01'0 0.0
2017-Dec-15 12:30N 40°44' W 074°01'0 0.0
2017-Dec-15 12:00N 40°44' W 074°01'3 0.2
2017-Dec-14 18:30N 40°41' W 074°02'2 3.5
2017-Dec-14 18:00N 40°42' W 074°00'0 0.0
2017-Dec-14 17:30N 40°42' W 074°00'1 2.9
2017-Dec-14 17:00N 40°41' W 074°02'1 2.9
2017-Dec-14 16:30N 40°42' W 074°00'0 0.0
2017-Dec-14 16:00N 40°42' W 074°00'0 0.0
2017-Dec-14 15:00N 40°42' W 074°00'0 0.0
2017-Dec-14 14:30N 40°42' W 074°00'2 3.2
2017-Dec-14 14:00N 40°44' W 074°01'0 0.0
2017-Dec-14 13:30N 40°44' W 074°01'0 0.0
2017-Dec-14 13:00N 40°44' W 074°01'0 0.0
2017-Dec-14 12:30N 40°44' W 074°01'0 0.0
2017-Dec-14 12:00N 40°44' W 074°01'0 0.0
2017-Dec-13 23:32N 40°44' W 074°01'0 0.0
2017-Dec-13 23:30N 40°44' W 074°01'0 0.0
2017-Dec-13 23:00N 40°44' W 074°01'1 1.1
2017-Dec-13 22:30N 40°43' W 074°01'1 2.5
2017-Dec-13 22:00N 40°42' W 074°00'2 3.3
2017-Dec-13 21:30N 40°41' W 074°02'2 3.2
2017-Dec-13 21:00N 40°42' W 074°00'0 0.0
2017-Dec-13 20:30N 40°42' W 074°00'2 3.4
2017-Dec-13 20:00N 40°41' W 074°02'2 3.3
2017-Dec-13 19:29N 40°42' W 074°00'0 0.0
2017-Dec-13 18:59N 40°42' W 074°00'1 3.0
2017-Dec-13 18:30N 40°41' W 074°02'1 2.7
2017-Dec-13 17:59N 40°42' W 074°00'0 0.0
2017-Dec-13 17:30N 40°42' W 074°00'2 3.3
2017-Dec-13 17:00N 40°41' W 074°02'2 3.3
2017-Dec-13 16:30N 40°42' W 074°00'0 0.0
2017-Dec-13 16:00N 40°42' W 074°00'1 2.8
2017-Dec-13 15:30N 40°41' W 074°02'1 2.7
2017-Dec-13 14:59N 40°42' W 074°00'0 0.0
2017-Dec-13 14:30N 40°42' W 074°00'1 1.8
2017-Dec-13 14:00N 40°43' W 074°01'1 2.4
2017-Dec-13 13:30N 40°44' W 074°01'0 0.0
2017-Dec-13 13:00N 40°44' W 074°01'0 0.0
2017-Dec-13 12:29N 40°44' W 074°01'0 0.0
2017-Dec-13 12:00N 40°44' W 074°01'0 0.0
2017-Dec-12 23:31N 40°44' W 074°01'0 0.0
2017-Dec-12 23:30N 40°44' W 074°01'0 0.0
2017-Dec-12 23:01N 40°44' W 074°01'0 0.0
2017-Dec-12 22:31N 40°44' W 074°01'0 0.0
2017-Dec-12 22:00N 40°44' W 074°01'0 1.0
2017-Dec-12 21:30N 40°43' W 074°01'1 2.6
2017-Dec-12 21:00N 40°42' W 074°00'0 0.0
2017-Dec-12 20:29N 40°42' W 074°00'2 4.2
2017-Dec-12 20:01N 40°41' W 074°02'2 3.8
2017-Dec-12 19:29N 40°42' W 074°00'0 0.0
2017-Dec-12 19:00N 40°42' W 074°00'2 4.0
2017-Dec-12 18:31N 40°41' W 074°02'2 3.9
2017-Dec-12 18:00N 40°42' W 074°00'0 0.0
2017-Dec-12 17:30N 40°42' W 074°00'2 3.7
2017-Dec-12 17:00N 40°41' W 074°02'2 3.7
2017-Dec-12 16:30N 40°42' W 074°00'0 0.0
2017-Dec-12 16:01N 40°42' W 074°00'2 3.9
2017-Dec-12 15:31N 40°41' W 074°02'2 3.9
2017-Dec-12 15:00N 40°42' W 074°00'0 0.0
2017-Dec-12 14:30N 40°42' W 074°00'0 0.0
2017-Dec-12 14:00N 40°42' W 074°00'2 3.2
2017-Dec-12 13:30N 40°44' W 074°01'0 0.0
2017-Dec-11 22:54N 40°44' W 074°01'0 0.0
2017-Dec-11 22:30N 40°44' W 074°01'2 3.2
2017-Dec-11 22:00N 40°42' W 074°00'2 3.4
2017-Dec-11 21:30N 40°41' W 074°02'2 3.2
2017-Dec-11 20:59N 40°42' W 074°00'0 0.0
2017-Dec-11 20:30N 40°42' W 074°00'2 4.2
2017-Dec-11 20:00N 40°41' W 074°03'2 4.0
2017-Dec-11 19:30N 40°42' W 074°00'0 0.0
2017-Dec-11 19:00N 40°42' W 074°00'1 2.4
2017-Dec-11 18:30N 40°42' W 074°02'1 2.4
2017-Dec-11 18:00N 40°42' W 074°00'0 0.0
2017-Dec-11 17:30N 40°42' W 074°00'2 4.1
2017-Dec-11 17:00N 40°41' W 074°02'2 3.9
2017-Dec-11 16:30N 40°42' W 074°00'0 0.0
2017-Dec-11 16:00N 40°42' W 074°00'2 4.0
2017-Dec-11 15:30N 40°41' W 074°02'2 3.8
2017-Dec-11 15:00N 40°42' W 074°00'1 2.4
2017-Dec-11 14:30N 40°42' W 074°02'0 0.9
2017-Dec-11 14:00N 40°43' W 074°02'2 0.1
2017-Dec-10 22:42N 40°44' W 074°01'0 1.0
2017-Dec-10 22:30N 40°44' W 074°01'2 3.2
2017-Dec-10 22:01N 40°42' W 074°00'2 4.1
2017-Dec-10 21:31N 40°41' W 074°03'2 4.1
2017-Dec-10 21:01N 40°42' W 074°00'0 0.0
2017-Dec-10 20:30N 40°42' W 074°00'2 3.7
2017-Dec-10 20:01N 40°41' W 074°02'2 3.4
2017-Dec-10 19:29N 40°42' W 074°00'0 0.0
2017-Dec-10 19:00N 40°42' W 074°00'2 3.9
2017-Dec-10 18:30N 40°41' W 074°02'2 3.8
2017-Dec-10 18:00N 40°42' W 074°00'0 0.0
2017-Dec-10 17:30N 40°42' W 074°00'2 4.0
2017-Dec-10 17:00N 40°41' W 074°02'2 3.9
2017-Dec-10 16:30N 40°42' W 074°00'0 0.0
2017-Dec-10 16:00N 40°42' W 074°00'2 3.6
2017-Dec-10 15:31N 40°41' W 074°02'2 3.5
2017-Dec-10 15:00N 40°42' W 074°00'0 0.0
2017-Dec-10 14:30N 40°42' W 074°00'1 3.0
2017-Dec-10 14:01N 40°44' W 074°01'0 0.6
2017-Dec-10 13:30N 40°44' W 074°01'0 0.0
2017-Dec-09 22:14N 40°44' W 074°01'0 0.0
2017-Dec-09 22:00N 40°44' W 074°01'1 1.0
2017-Dec-09 21:30N 40°43' W 074°01'1 2.6
2017-Dec-09 21:00N 40°42' W 074°00'0 0.0
2017-Dec-09 20:30N 40°42' W 074°00'2 3.3
2017-Dec-09 20:00N 40°41' W 074°02'2 3.3
2017-Dec-09 19:30N 40°42' W 074°00'0 0.0
2017-Dec-09 19:00N 40°42' W 074°00'0 0.0
2017-Dec-09 18:30N 40°42' W 074°00'0 0.0
2017-Dec-09 18:00N 40°42' W 074°00'0 0.0
2017-Dec-09 17:30N 40°42' W 074°00'0 0.0
2017-Dec-09 17:00N 40°42' W 074°00'0 0.0
2017-Dec-09 16:30N 40°42' W 074°00'0 0.0
2017-Dec-09 16:00N 40°42' W 074°00'2 3.3
2017-Dec-09 15:30N 40°41' W 074°02'2 3.2
2017-Dec-09 15:00N 40°42' W 074°00'0 0.0
2017-Dec-09 14:30N 40°42' W 074°00'1 1.3
2017-Dec-09 14:00N 40°42' W 074°01'2 0.1
2017-Dec-08 23:02N 40°44' W 074°01'0 0.0
2017-Dec-08 23:00N 40°44' W 074°01'0 0.5
2017-Dec-08 22:30N 40°44' W 074°01'2 3.1
2017-Dec-08 22:00N 40°42' W 074°00'1 2.4
2017-Dec-08 21:31N 40°42' W 074°02'1 2.3
2017-Dec-08 21:00N 40°42' W 074°00'0 0.0
2017-Dec-08 20:30N 40°42' W 074°00'1 3.0
2017-Dec-08 20:01N 40°42' W 074°02'1 2.8
2017-Dec-08 19:29N 40°42' W 074°00'0 0.0
2017-Dec-08 19:00N 40°42' W 074°00'1 2.9
2017-Dec-08 18:30N 40°42' W 074°02'1 2.9
2017-Dec-08 18:01N 40°42' W 074°00'0 0.0
2017-Dec-08 17:31N 40°42' W 074°00'2 4.1
2017-Dec-08 17:00N 40°41' W 074°03'2 4.1
2017-Dec-08 16:30N 40°42' W 074°00'0 0.0
2017-Dec-08 16:00N 40°42' W 074°00'2 3.1
2017-Dec-08 15:31N 40°42' W 074°02'2 3.1
2017-Dec-08 15:00N 40°42' W 074°00'0 0.0
2017-Dec-08 14:28N 40°42' W 074°00'1 2.8
2017-Dec-08 14:01N 40°43' W 074°01'1 0.0
2017-Dec-07 23:03N 40°44' W 074°01'0 0.0
2017-Dec-07 23:00N 40°44' W 074°01'2 3.7
2017-Dec-07 22:30N 40°42' W 074°01'1 1.4
2017-Dec-07 22:00N 40°42' W 074°00'2 3.3
2017-Dec-07 21:30N 40°41' W 074°02'2 3.2
2017-Dec-07 21:00N 40°42' W 074°00'0 0.0
2017-Dec-07 20:30N 40°42' W 074°00'2 3.1
2017-Dec-07 20:00N 40°41' W 074°02'2 3.1
2017-Dec-07 19:30N 40°42' W 074°00'0 0.0
2017-Dec-07 19:00N 40°42' W 074°00'2 3.6
2017-Dec-07 18:30N 40°41' W 074°02'2 3.4
2017-Dec-07 18:00N 40°42' W 074°00'0 0.0
2017-Dec-07 17:30N 40°42' W 074°00'2 3.8
2017-Dec-07 17:00N 40°41' W 074°02'2 3.8
2017-Dec-07 16:30N 40°42' W 074°00'0 0.0
2017-Dec-07 15:58N 40°42' W 074°00'2 4.5
2017-Dec-07 15:30N 40°41' W 074°03'2 4.2
2017-Dec-07 15:00N 40°42' W 074°00'0 0.0
2017-Dec-07 14:30N 40°42' W 074°00'1 1.9
2017-Dec-07 14:00N 40°43' W 074°01'1 2.1
2017-Dec-07 13:30N 40°44' W 074°01'0 0.0
2017-Dec-07 13:00N 40°44' W 074°01'0 0.0
2017-Dec-07 12:30N 40°44' W 074°01'0 0.0
2017-Dec-07 12:00N 40°44' W 074°01'0 0.0
2017-Dec-06 22:26N 40°44' W 074°01'2 3.6
2017-Dec-06 22:00N 40°42' W 074°00'2 3.6
2017-Dec-06 21:31N 40°41' W 074°02'2 3.4
2017-Dec-06 21:00N 40°42' W 074°00'  

Dump ship's entire track history